createdAt,value
2022-08-17T00:04:59.732Z,48.19
2022-08-17T00:10:04.745Z,46.79
2022-08-17T00:15:10.733Z,46.84
2022-08-17T00:20:14.575Z,48.31
2022-08-17T00:25:20.701Z,46.97
2022-08-17T00:30:24.312Z,47.79
2022-08-17T00:35:28.649Z,46.93
2022-08-17T00:40:44.447Z,46.74
2022-08-17T00:45:49.564Z,46.84
2022-08-17T00:50:59.333Z,46.62
2022-08-17T00:56:06.626Z,46.79
2022-08-17T01:01:37.030Z,46.76
2022-08-17T01:06:41.989Z,46.70
2022-08-17T01:11:52.238Z,47.07
2022-08-17T01:16:56.854Z,49.12
2022-08-17T01:22:05.189Z,48.73
2022-08-17T01:27:10.898Z,49.71
2022-08-17T01:32:14.734Z,49.31
2022-08-17T01:37:19.100Z,47.98
2022-08-17T01:42:28.252Z,49.56
2022-08-17T01:47:31.759Z,48.95
2022-08-17T01:52:39.633Z,50.03
2022-08-17T01:57:47.118Z,51.47
2022-08-17T02:02:50.661Z,50.72
2022-08-17T02:08:00.175Z,50.59
2022-08-17T02:13:05.836Z,49.71
2022-08-17T02:18:10.214Z,49.57
2022-08-17T02:23:14.390Z,51.32
2022-08-17T02:28:19.747Z,52.50
2022-08-17T02:33:23.283Z,52.83
2022-08-17T02:38:45.867Z,52.01
2022-08-17T02:43:51.115Z,51.12
2022-08-17T02:48:54.696Z,50.87
2022-08-17T02:54:38.791Z,50.42
2022-08-17T02:59:24.283Z,51.66
2022-08-17T03:04:27.731Z,51.35
2022-08-17T03:09:31.232Z,52.34
2022-08-17T03:14:41.228Z,52.51
2022-08-17T03:19:45.237Z,51.77
2022-08-17T03:24:48.700Z,52.63
2022-08-17T03:29:53.982Z,52.74
2022-08-17T03:35:01.237Z,52.15
2022-08-17T03:40:07.698Z,50.99
2022-08-17T03:45:15.568Z,51.55
2022-08-17T03:50:34.278Z,51.08
2022-08-17T03:55:55.787Z,51.30
2022-08-17T04:01:01.325Z,52.30
2022-08-17T04:06:05.456Z,52.99
2022-08-17T04:11:09.017Z,52.72
2022-08-17T04:16:13.826Z,53.71
2022-08-17T04:21:17.302Z,52.76
2022-08-17T04:26:53.139Z,53.02
2022-08-17T04:31:47.973Z,52.11
2022-08-17T04:36:52.561Z,52.56
2022-08-17T04:42:09.159Z,52.36
2022-08-17T04:47:14.107Z,52.63
2022-08-17T04:52:37.453Z,52.95
2022-08-17T04:57:45.044Z,52.63
2022-08-17T05:02:51.219Z,53.34
2022-08-17T05:07:56.231Z,51.71
2022-08-17T05:13:00.595Z,50.88
2022-08-17T05:18:06.156Z,52.33
2022-08-17T05:23:11.956Z,51.68
2022-08-17T05:28:16.259Z,51.00
2022-08-17T05:33:23.302Z,50.84
2022-08-17T05:38:28.530Z,50.27
2022-08-17T05:43:33.859Z,50.23
2022-08-17T05:48:43.474Z,49.28
2022-08-17T05:53:52.916Z,48.46
2022-08-17T05:59:01.345Z,47.59
2022-08-17T06:04:16.022Z,47.31
2022-08-17T06:09:34.028Z,47.19
2022-08-17T06:14:58.355Z,47.33
2022-08-17T06:20:10.852Z,47.02
2022-08-17T06:25:19.488Z,44.89
2022-08-17T06:30:25.697Z,44.89
2022-08-17T06:35:35.914Z,44.24
2022-08-17T06:40:52.867Z,44.52
2022-08-17T06:46:00.293Z,43.33
2022-08-17T06:51:08.548Z,42.77
2022-08-17T06:56:14.001Z,42.10
2022-08-17T07:01:20.912Z,41.97
2022-08-17T07:06:30.034Z,42.06
2022-08-17T07:11:51.775Z,41.00
2022-08-17T07:16:56.859Z,41.77
2022-08-17T07:22:13.935Z,41.13
2022-08-17T07:27:21.201Z,40.40
2022-08-17T07:32:27.182Z,39.95
2022-08-17T07:37:34.218Z,39.36
2022-08-17T07:42:41.820Z,39.57
2022-08-17T07:48:11.290Z,38.74
2022-08-17T07:53:23.372Z,38.23
2022-08-17T07:58:26.861Z,38.58
2022-08-17T08:03:31.963Z,37.83
2022-08-17T08:08:42.256Z,36.56
2022-08-17T08:13:46.197Z,35.42
2022-08-17T08:18:56.011Z,34.61
2022-08-17T08:24:14.020Z,33.94
2022-08-17T08:29:22.484Z,34.80
2022-08-17T08:34:47.431Z,34.18
2022-08-17T08:39:59.838Z,32.64
2022-08-17T08:45:08.946Z,32.73
2022-08-17T08:50:37.154Z,32.70
2022-08-17T08:55:51.111Z,32.23
2022-08-17T09:00:57.656Z,32.79
2022-08-17T09:06:32.453Z,32.11
2022-08-17T09:12:01.986Z,32.47
2022-08-17T09:17:06.940Z,32.17
2022-08-17T09:22:23.651Z,31.21
2022-08-17T09:27:34.754Z,31.43
2022-08-17T09:32:41.754Z,31.14
2022-08-17T09:37:52.859Z,29.98
2022-08-17T09:43:02.639Z,30.42
2022-08-17T09:48:09.668Z,29.33
2022-08-17T09:53:13.569Z,29.04
2022-08-17T09:58:29.028Z,28.07
2022-08-17T10:03:55.759Z,26.80
2022-08-17T10:09:08.287Z,27.61
2022-08-17T10:14:37.979Z,25.41
2022-08-17T10:19:49.391Z,24.67
2022-08-17T10:25:23.121Z,25.51
2022-08-17T10:30:32.243Z,24.66
2022-08-17T10:35:41.267Z,23.55
2022-08-17T10:40:49.315Z,23.13
2022-08-17T10:46:26.460Z,23.70
2022-08-17T10:51:37.902Z,24.78
2022-08-17T10:56:47.443Z,22.79
2022-08-17T11:02:12.169Z,22.70
2022-08-17T11:07:27.866Z,22.62
2022-08-17T11:12:38.944Z,23.23
2022-08-17T11:18:11.242Z,22.33
2022-08-17T11:23:32.517Z,23.09
2022-08-17T11:28:48.587Z,22.90
2022-08-17T11:33:59.256Z,24.28
2022-08-17T11:39:06.652Z,24.28
2022-08-17T11:44:21.834Z,23.45
2022-08-17T11:49:54.948Z,24.18
2022-08-17T11:55:17.731Z,24.06
2022-08-17T12:00:54.657Z,22.38
2022-08-17T12:06:05.571Z,22.98
2022-08-17T12:11:12.331Z,23.54
2022-08-17T12:16:16.751Z,21.14
2022-08-17T12:21:45.054Z,21.60
2022-08-17T12:26:53.255Z,20.63
2022-08-17T12:31:57.415Z,20.76
2022-08-17T12:37:04.306Z,22.04
2022-08-17T12:42:23.051Z,23.06
2022-08-17T12:47:29.388Z,21.89
2022-08-17T12:52:34.481Z,21.40
2022-08-17T12:57:42.887Z,21.45
2022-08-17T13:02:49.119Z,21.68
2022-08-17T13:07:54.807Z,21.93
2022-08-17T13:13:27.192Z,22.59
2022-08-17T13:18:40.869Z,21.73
2022-08-17T13:23:55.853Z,22.28
2022-08-17T13:28:59.712Z,22.40
2022-08-17T13:34:17.857Z,21.57
2022-08-17T13:39:25.615Z,22.08
2022-08-17T13:44:45.399Z,21.53
2022-08-17T13:49:49.842Z,21.65
2022-08-17T13:54:55.685Z,22.17
2022-08-17T14:00:10.949Z,22.29
2022-08-17T14:05:14.704Z,22.78
2022-08-17T14:10:20.136Z,21.81
2022-08-17T14:15:56.153Z,21.79
2022-08-17T14:20:49.483Z,22.95
2022-08-17T14:25:54.383Z,22.36
2022-08-17T14:30:57.968Z,22.77
2022-08-17T14:36:01.767Z,23.29
2022-08-17T14:41:06.862Z,23.43
2022-08-17T14:46:12.426Z,23.15
2022-08-17T14:51:16.055Z,24.59
2022-08-17T14:56:20.965Z,23.50
2022-08-17T15:01:26.945Z,26.84
2022-08-17T15:06:30.402Z,29.99
2022-08-17T15:11:35.206Z,32.98
2022-08-17T15:16:39.277Z,36.68
2022-08-17T15:21:42.847Z,35.68
2022-08-17T15:26:48.436Z,37.72
2022-08-17T15:31:51.891Z,39.38
2022-08-17T15:36:55.378Z,40.22
2022-08-17T15:42:03.592Z,40.22
2022-08-17T15:47:07.143Z,40.38
2022-08-17T15:52:17.028Z,40.34
2022-08-17T15:57:23.275Z,39.00
2022-08-17T16:03:14.735Z,36.77
2022-08-17T16:07:52.672Z,36.73
2022-08-17T16:12:58.617Z,37.60
2022-08-17T16:18:02.844Z,34.84
2022-08-17T16:23:06.369Z,33.33
2022-08-17T16:28:11.272Z,33.69
2022-08-17T16:33:16.586Z,33.78
2022-08-17T16:38:21.371Z,32.69
2022-08-17T16:43:26.269Z,34.79
2022-08-17T16:48:30.431Z,34.77
2022-08-17T16:53:33.990Z,34.37
2022-08-17T16:58:40.908Z,34.34
2022-08-17T17:03:48.619Z,32.70
2022-08-17T17:08:57.057Z,32.59
2022-08-17T17:14:05.167Z,32.94
2022-08-17T17:19:11.879Z,32.89
2022-08-17T17:24:17.682Z,32.95
2022-08-17T17:29:48.741Z,32.73
2022-08-17T17:35:02.667Z,32.85
2022-08-17T17:40:10.391Z,33.97
2022-08-17T17:45:21.039Z,33.92
2022-08-17T17:50:38.514Z,34.58
2022-08-17T17:55:47.988Z,34.62
2022-08-17T18:00:59.125Z,35.61
2022-08-17T18:06:16.225Z,36.34
2022-08-17T18:11:34.984Z,36.60
2022-08-17T18:16:42.699Z,36.46
2022-08-17T18:21:50.425Z,36.68
2022-08-17T18:26:55.619Z,38.02
2022-08-17T18:32:20.759Z,38.59
2022-08-17T18:37:49.667Z,38.70
2022-08-17T18:43:13.962Z,39.89
2022-08-17T18:48:26.099Z,39.26
2022-08-17T18:53:36.398Z,40.48
2022-08-17T18:58:40.544Z,39.87
2022-08-17T19:03:45.946Z,40.26
2022-08-17T19:08:49.535Z,40.61
2022-08-17T19:13:56.033Z,41.26
2022-08-17T19:19:05.299Z,41.39
2022-08-17T19:24:11.343Z,41.24
2022-08-17T19:29:16.584Z,41.53
2022-08-17T19:34:33.462Z,41.94
2022-08-17T19:39:44.039Z,42.88
2022-08-17T19:44:54.448Z,43.48
2022-08-17T19:50:05.104Z,44.66
2022-08-17T19:55:19.843Z,44.01
2022-08-17T20:00:24.394Z,45.20
2022-08-17T20:05:40.619Z,45.08
2022-08-17T20:10:58.935Z,45.25
2022-08-17T20:16:03.389Z,46.56
2022-08-17T20:21:20.023Z,46.90
2022-08-17T20:26:28.069Z,46.48
2022-08-17T20:31:48.806Z,47.36
2022-08-17T20:37:01.189Z,46.69
2022-08-17T20:42:11.312Z,46.65
2022-08-17T20:47:26.946Z,47.75
2022-08-17T20:52:48.620Z,46.60
2022-08-17T20:57:52.338Z,48.00
2022-08-17T21:03:50.695Z,48.55
2022-08-17T21:08:59.418Z,47.81
2022-08-17T21:14:08.225Z,47.89
2022-08-17T21:19:30.964Z,48.75
2022-08-17T21:24:43.461Z,49.04
2022-08-17T21:29:56.527Z,48.26
2022-08-17T21:35:23.542Z,48.39
2022-08-17T21:40:31.265Z,48.47
2022-08-17T21:45:37.163Z,49.58
2022-08-17T21:50:42.885Z,50.45
2022-08-17T21:55:50.189Z,50.17
2022-08-17T22:01:22.431Z,49.20
2022-08-17T22:06:28.380Z,49.97
2022-08-17T22:11:34.450Z,50.90
2022-08-17T22:16:38.922Z,51.77
2022-08-17T22:28:08.197Z,50.62
2022-08-17T22:33:36.816Z,51.12
2022-08-17T22:38:41.034Z,49.93
2022-08-17T22:43:48.741Z,49.55
2022-08-17T22:48:57.790Z,49.23
2022-08-17T22:54:20.754Z,49.87
2022-08-17T22:59:41.790Z,49.81
2022-08-17T23:04:48.483Z,50.68
2022-08-17T23:09:54.199Z,50.38
2022-08-17T23:15:01.508Z,52.38
2022-08-17T23:20:06.464Z,51.20
2022-08-17T23:25:11.266Z,51.00
2022-08-17T23:30:16.444Z,50.04
2022-08-17T23:35:38.960Z,50.59
2022-08-17T23:40:58.128Z,51.74
2022-08-17T23:46:04.526Z,52.54
2022-08-17T23:51:11.129Z,52.70
2022-08-17T23:56:15.104Z,51.59
